sensor_id;sensor_type;location;lat;lon;timestamp;P1;durP1;ratioP1;P2;durP2;ratioP2
76745;SDS011;65671;49.976;20.038;2023-03-05T00:00:48;10.10;;;4.53;;
76745;SDS011;65671;49.976;20.038;2023-03-05T00:05:39;9.77;;;4.33;;
76745;SDS011;65671;49.976;20.038;2023-03-05T00:08:05;9.82;;;4.53;;
76745;SDS011;65671;49.976;20.038;2023-03-05T00:12:55;12.23;;;5.37;;
76745;SDS011;65671;49.976;20.038;2023-03-05T00:17:46;10.75;;;4.82;;
76745;SDS011;65671;49.976;20.038;2023-03-05T00:22:37;9.35;;;4.97;;
76745;SDS011;65671;49.976;20.038;2023-03-05T00:25:03;9.05;;;4.60;;
76745;SDS011;65671;49.976;20.038;2023-03-05T00:27:29;10.15;;;4.90;;
76745;SDS011;65671;49.976;20.038;2023-03-05T00:29:56;7.07;;;4.57;;
76745;SDS011;65671;49.976;20.038;2023-03-05T00:34:47;7.60;;;3.97;;
76745;SDS011;65671;49.976;20.038;2023-03-05T00:37:14;10.68;;;4.55;;
76745;SDS011;65671;49.976;20.038;2023-03-05T00:39:40;9.48;;;5.07;;
76745;SDS011;65671;49.976;20.038;2023-03-05T00:42:06;11.68;;;5.10;;
76745;SDS011;65671;49.976;20.038;2023-03-05T00:46:57;8.37;;;4.17;;
76745;SDS011;65671;49.976;20.038;2023-03-05T00:49:23;11.82;;;4.60;;
76745;SDS011;65671;49.976;20.038;2023-03-05T00:54:14;8.83;;;4.17;;
76745;SDS011;65671;49.976;20.038;2023-03-05T00:59:04;7.80;;;3.97;;
76745;SDS011;65671;49.976;20.038;2023-03-05T01:03:56;6.72;;;3.35;;
76745;SDS011;65671;49.976;20.038;2023-03-05T01:06:23;7.45;;;4.13;;
76745;SDS011;65671;49.976;20.038;2023-03-05T01:08:49;8.48;;;4.85;;
76745;SDS011;65671;49.976;20.038;2023-03-05T01:11:15;10.07;;;4.80;;
76745;SDS011;65671;49.976;20.038;2023-03-05T01:13:40;8.05;;;4.45;;
76745;SDS011;65671;49.976;20.038;2023-03-05T01:16:06;10.55;;;4.30;;
76745;SDS011;65671;49.976;20.038;2023-03-05T01:20:57;10.88;;;5.55;;
76745;SDS011;65671;49.976;20.038;2023-03-05T01:25:53;9.57;;;4.97;;
76745;SDS011;65671;49.976;20.038;2023-03-05T01:28:22;9.00;;;5.05;;
76745;SDS011;65671;49.976;20.038;2023-03-05T01:30:48;13.50;;;5.15;;
76745;SDS011;65671;49.976;20.038;2023-03-05T01:33:14;10.52;;;5.20;;
76745;SDS011;65671;49.976;20.038;2023-03-05T01:38:05;7.82;;;4.70;;
76745;SDS011;65671;49.976;20.038;2023-03-05T01:40:31;11.73;;;4.82;;
76745;SDS011;65671;49.976;20.038;2023-03-05T01:42:58;11.82;;;5.80;;
76745;SDS011;65671;49.976;20.038;2023-03-05T01:45:28;9.85;;;4.90;;
76745;SDS011;65671;49.976;20.038;2023-03-05T01:47:56;10.07;;;5.25;;
76745;SDS011;65671;49.976;20.038;2023-03-05T01:52:50;11.50;;;5.30;;
76745;SDS011;65671;49.976;20.038;2023-03-05T01:55:22;9.88;;;4.88;;
76745;SDS011;65671;49.976;20.038;2023-03-05T01:57:54;6.95;;;4.40;;
76745;SDS011;65671;49.976;20.038;2023-03-05T02:00:24;9.15;;;4.82;;
76745;SDS011;65671;49.976;20.038;2023-03-05T02:02:53;7.80;;;4.10;;
76745;SDS011;65671;49.976;20.038;2023-03-05T02:05:29;8.90;;;3.97;;
76745;SDS011;65671;49.976;20.038;2023-03-05T02:08:00;7.13;;;3.83;;
76745;SDS011;65671;49.976;20.038;2023-03-05T02:13:23;9.13;;;3.80;;
76745;SDS011;65671;49.976;20.038;2023-03-05T02:15:52;8.02;;;3.60;;
76745;SDS011;65671;49.976;20.038;2023-03-05T02:18:20;7.63;;;3.30;;
76745;SDS011;65671;49.976;20.038;2023-03-05T02:23:16;7.05;;;3.20;;
76745;SDS011;65671;49.976;20.038;2023-03-05T02:25:43;5.13;;;3.45;;
76745;SDS011;65671;49.976;20.038;2023-03-05T02:28:14;5.70;;;2.67;;
76745;SDS011;65671;49.976;20.038;2023-03-05T02:30:43;6.28;;;3.00;;
76745;SDS011;65671;49.976;20.038;2023-03-05T02:33:08;5.82;;;2.97;;
76745;SDS011;65671;49.976;20.038;2023-03-05T02:37:59;6.85;;;3.40;;
76745;SDS011;65671;49.976;20.038;2023-03-05T02:42:50;6.30;;;2.85;;
76745;SDS011;65671;49.976;20.038;2023-03-05T02:45:16;6.20;;;3.20;;
76745;SDS011;65671;49.976;20.038;2023-03-05T02:47:42;9.88;;;4.20;;
76745;SDS011;65671;49.976;20.038;2023-03-05T02:52:34;7.70;;;3.63;;
76745;SDS011;65671;49.976;20.038;2023-03-05T02:55:00;7.57;;;3.92;;
76745;SDS011;65671;49.976;20.038;2023-03-05T03:02:27;7.57;;;3.25;;
76745;SDS011;65671;49.976;20.038;2023-03-05T03:04:53;6.30;;;3.35;;
76745;SDS011;65671;49.976;20.038;2023-03-05T03:09:44;5.95;;;3.00;;
76745;SDS011;65671;49.976;20.038;2023-03-05T03:14:37;6.88;;;2.83;;
76745;SDS011;65671;49.976;20.038;2023-03-05T03:17:05;7.85;;;2.90;;
76745;SDS011;65671;49.976;20.038;2023-03-05T03:19:32;6.93;;;2.85;;
76745;SDS011;65671;49.976;20.038;2023-03-05T03:24:24;4.72;;;2.58;;
76745;SDS011;65671;49.976;20.038;2023-03-05T03:29:15;7.00;;;2.78;;
76745;SDS011;65671;49.976;20.038;2023-03-05T03:31:42;4.57;;;2.47;;
76745;SDS011;65671;49.976;20.038;2023-03-05T03:34:11;6.55;;;3.10;;
76745;SDS011;65671;49.976;20.038;2023-03-05T03:36:39;9.95;;;3.30;;
76745;SDS011;65671;49.976;20.038;2023-03-05T03:39:05;6.65;;;3.20;;
76745;SDS011;65671;49.976;20.038;2023-03-05T03:41:31;10.48;;;4.07;;
76745;SDS011;65671;49.976;20.038;2023-03-05T03:43:57;11.57;;;4.72;;
76745;SDS011;65671;49.976;20.038;2023-03-05T03:48:49;10.88;;;4.93;;
76745;SDS011;65671;49.976;20.038;2023-03-05T03:51:15;12.18;;;5.30;;
76745;SDS011;65671;49.976;20.038;2023-03-05T03:53:41;11.52;;;4.88;;
76745;SDS011;65671;49.976;20.038;2023-03-05T03:56:06;8.07;;;4.07;;
76745;SDS011;65671;49.976;20.038;2023-03-05T03:58:32;9.23;;;5.00;;
76745;SDS011;65671;49.976;20.038;2023-03-05T04:00:57;9.60;;;4.43;;
76745;SDS011;65671;49.976;20.038;2023-03-05T04:05:48;12.15;;;5.82;;
76745;SDS011;65671;49.976;20.038;2023-03-05T04:08:14;11.35;;;5.35;;
76745;SDS011;65671;49.976;20.038;2023-03-05T04:10:39;9.88;;;4.95;;
76745;SDS011;65671;49.976;20.038;2023-03-05T04:13:05;11.50;;;5.57;;
76745;SDS011;65671;49.976;20.038;2023-03-05T04:17:57;15.13;;;5.60;;
76745;SDS011;65671;49.976;20.038;2023-03-05T04:22:48;10.15;;;5.22;;
76745;SDS011;65671;49.976;20.038;2023-03-05T04:27:39;10.30;;;5.35;;
76745;SDS011;65671;49.976;20.038;2023-03-05T04:32:32;7.20;;;3.42;;
76745;SDS011;65671;49.976;20.038;2023-03-05T04:34:57;6.85;;;3.40;;
76745;SDS011;65671;49.976;20.038;2023-03-05T04:37:24;6.25;;;3.42;;
76745;SDS011;65671;49.976;20.038;2023-03-05T04:39:51;6.22;;;3.33;;
76745;SDS011;65671;49.976;20.038;2023-03-05T04:42:17;6.57;;;3.55;;
76745;SDS011;65671;49.976;20.038;2023-03-05T04:44:45;8.05;;;3.15;;
76745;SDS011;65671;49.976;20.038;2023-03-05T04:47:12;6.70;;;3.08;;
76745;SDS011;65671;49.976;20.038;2023-03-05T04:49:38;9.90;;;4.07;;
76745;SDS011;65671;49.976;20.038;2023-03-05T04:52:03;8.93;;;5.00;;
76745;SDS011;65671;49.976;20.038;2023-03-05T04:54:29;7.82;;;4.30;;
76745;SDS011;65671;49.976;20.038;2023-03-05T04:56:54;10.70;;;5.18;;
76745;SDS011;65671;49.976;20.038;2023-03-05T04:59:20;11.85;;;5.78;;
76745;SDS011;65671;49.976;20.038;2023-03-05T05:01:46;10.48;;;5.30;;
76745;SDS011;65671;49.976;20.038;2023-03-05T05:04:11;16.48;;;5.90;;
76745;SDS011;65671;49.976;20.038;2023-03-05T05:06:37;13.02;;;5.60;;
76745;SDS011;65671;49.976;20.038;2023-03-05T05:09:02;15.25;;;5.35;;
76745;SDS011;65671;49.976;20.038;2023-03-05T05:11:28;8.48;;;4.30;;
76745;SDS011;65671;49.976;20.038;2023-03-05T05:13:53;8.60;;;4.50;;
76745;SDS011;65671;49.976;20.038;2023-03-05T05:16:20;10.82;;;4.82;;
76745;SDS011;65671;49.976;20.038;2023-03-05T05:18:45;15.43;;;6.38;;
76745;SDS011;65671;49.976;20.038;2023-03-05T05:21:12;10.15;;;4.88;;
76745;SDS011;65671;49.976;20.038;2023-03-05T05:23:39;14.75;;;6.05;;
76745;SDS011;65671;49.976;20.038;2023-03-05T05:26:05;11.52;;;5.85;;
76745;SDS011;65671;49.976;20.038;2023-03-05T05:28:33;14.43;;;6.43;;
76745;SDS011;65671;49.976;20.038;2023-03-05T05:30:59;14.55;;;6.43;;
76745;SDS011;65671;49.976;20.038;2023-03-05T05:33:25;18.73;;;7.30;;
76745;SDS011;65671;49.976;20.038;2023-03-05T05:35:51;11.27;;;6.65;;
76745;SDS011;65671;49.976;20.038;2023-03-05T05:38:17;16.33;;;7.50;;
76745;SDS011;65671;49.976;20.038;2023-03-05T05:40:43;18.73;;;8.68;;
76745;SDS011;65671;49.976;20.038;2023-03-05T05:43:08;13.35;;;7.28;;
76745;SDS011;65671;49.976;20.038;2023-03-05T05:45:36;18.50;;;7.75;;
76745;SDS011;65671;49.976;20.038;2023-03-05T05:48:02;20.50;;;9.25;;
76745;SDS011;65671;49.976;20.038;2023-03-05T05:50:28;15.73;;;8.80;;
76745;SDS011;65671;49.976;20.038;2023-03-05T05:52:54;15.82;;;7.40;;
76745;SDS011;65671;49.976;20.038;2023-03-05T05:55:19;14.93;;;8.05;;
76745;SDS011;65671;49.976;20.038;2023-03-05T05:57:45;15.18;;;8.15;;
76745;SDS011;65671;49.976;20.038;2023-03-05T06:02:40;20.30;;;8.50;;
76745;SDS011;65671;49.976;20.038;2023-03-05T06:05:07;21.42;;;9.00;;
76745;SDS011;65671;49.976;20.038;2023-03-05T06:07:36;18.67;;;10.73;;
76745;SDS011;65671;49.976;20.038;2023-03-05T06:10:02;27.15;;;12.18;;
76745;SDS011;65671;49.976;20.038;2023-03-05T06:12:28;27.17;;;13.00;;
76745;SDS011;65671;49.976;20.038;2023-03-05T06:14:53;20.13;;;11.48;;
76745;SDS011;65671;49.976;20.038;2023-03-05T06:17:19;22.55;;;10.25;;
76745;SDS011;65671;49.976;20.038;2023-03-05T06:19:45;15.88;;;9.00;;
76745;SDS011;65671;49.976;20.038;2023-03-05T06:22:10;21.70;;;9.80;;
76745;SDS011;65671;49.976;20.038;2023-03-05T06:24:36;15.65;;;9.20;;
76745;SDS011;65671;49.976;20.038;2023-03-05T06:27:03;22.77;;;9.85;;
76745;SDS011;65671;49.976;20.038;2023-03-05T06:29:29;18.60;;;9.55;;
76745;SDS011;65671;49.976;20.038;2023-03-05T06:31:54;21.10;;;10.18;;
76745;SDS011;65671;49.976;20.038;2023-03-05T06:34:20;21.88;;;10.18;;
76745;SDS011;65671;49.976;20.038;2023-03-05T06:36:46;18.73;;;11.18;;
76745;SDS011;65671;49.976;20.038;2023-03-05T06:39:11;17.13;;;8.85;;
76745;SDS011;65671;49.976;20.038;2023-03-05T06:41:37;18.48;;;10.18;;
76745;SDS011;65671;49.976;20.038;2023-03-05T06:44:02;25.00;;;11.27;;
76745;SDS011;65671;49.976;20.038;2023-03-05T06:46:29;23.40;;;11.65;;
76745;SDS011;65671;49.976;20.038;2023-03-05T06:48:57;27.40;;;13.32;;
76745;SDS011;65671;49.976;20.038;2023-03-05T06:51:36;24.85;;;12.07;;
76745;SDS011;65671;49.976;20.038;2023-03-05T06:54:03;25.27;;;12.43;;
76745;SDS011;65671;49.976;20.038;2023-03-05T06:56:33;26.15;;;12.20;;
76745;SDS011;65671;49.976;20.038;2023-03-05T06:59:00;31.13;;;13.85;;
76745;SDS011;65671;49.976;20.038;2023-03-05T07:01:25;24.55;;;11.50;;
76745;SDS011;65671;49.976;20.038;2023-03-05T07:03:51;22.40;;;11.32;;
76745;SDS011;65671;49.976;20.038;2023-03-05T07:06:18;24.45;;;13.02;;
76745;SDS011;65671;49.976;20.038;2023-03-05T07:08:46;24.50;;;12.93;;
76745;SDS011;65671;49.976;20.038;2023-03-05T07:11:16;24.88;;;12.50;;
76745;SDS011;65671;49.976;20.038;2023-03-05T07:13:44;28.15;;;12.80;;
76745;SDS011;65671;49.976;20.038;2023-03-05T07:16:15;26.17;;;11.50;;
76745;SDS011;65671;49.976;20.038;2023-03-05T07:18:43;32.35;;;15.18;;
76745;SDS011;65671;49.976;20.038;2023-03-05T07:21:10;27.70;;;13.15;;
76745;SDS011;65671;49.976;20.038;2023-03-05T07:23:41;27.65;;;13.25;;
76745;SDS011;65671;49.976;20.038;2023-03-05T07:26:06;26.85;;;12.18;;
76745;SDS011;65671;49.976;20.038;2023-03-05T07:28:32;27.98;;;13.30;;
76745;SDS011;65671;49.976;20.038;2023-03-05T07:31:02;24.80;;;12.60;;
76745;SDS011;65671;49.976;20.038;2023-03-05T07:33:30;29.02;;;12.98;;
76745;SDS011;65671;49.976;20.038;2023-03-05T07:35:57;23.60;;;12.25;;
76745;SDS011;65671;49.976;20.038;2023-03-05T07:38:25;20.58;;;11.10;;
76745;SDS011;65671;49.976;20.038;2023-03-05T07:40:52;21.15;;;10.80;;
76745;SDS011;65671;49.976;20.038;2023-03-05T07:43:17;20.92;;;11.70;;
76745;SDS011;65671;49.976;20.038;2023-03-05T07:45:43;21.98;;;10.63;;
76745;SDS011;65671;49.976;20.038;2023-03-05T07:48:16;20.25;;;10.23;;
76745;SDS011;65671;49.976;20.038;2023-03-05T07:50:45;15.75;;;8.30;;
76745;SDS011;65671;49.976;20.038;2023-03-05T07:53:11;20.88;;;9.73;;
76745;SDS011;65671;49.976;20.038;2023-03-05T07:55:43;18.27;;;9.30;;
76745;SDS011;65671;49.976;20.038;2023-03-05T07:58:10;17.75;;;9.07;;
76745;SDS011;65671;49.976;20.038;2023-03-05T08:00:38;18.52;;;9.02;;
76745;SDS011;65671;49.976;20.038;2023-03-05T08:03:04;17.88;;;9.10;;
76745;SDS011;65671;49.976;20.038;2023-03-05T08:05:29;20.20;;;8.73;;
76745;SDS011;65671;49.976;20.038;2023-03-05T08:07:55;14.52;;;8.25;;
76745;SDS011;65671;49.976;20.038;2023-03-05T08:12:46;18.77;;;7.83;;
76745;SDS011;65671;49.976;20.038;2023-03-05T08:15:11;13.60;;;7.68;;
76745;SDS011;65671;49.976;20.038;2023-03-05T08:17:37;18.92;;;8.48;;
76745;SDS011;65671;49.976;20.038;2023-03-05T08:20:03;18.50;;;9.25;;
76745;SDS011;65671;49.976;20.038;2023-03-05T08:22:32;17.23;;;9.23;;
76745;SDS011;65671;49.976;20.038;2023-03-05T08:24:59;23.08;;;10.52;;
76745;SDS011;65671;49.976;20.038;2023-03-05T08:27:25;20.35;;;10.13;;
76745;SDS011;65671;49.976;20.038;2023-03-05T08:29:51;17.60;;;9.07;;
76745;SDS011;65671;49.976;20.038;2023-03-05T08:34:45;21.25;;;9.45;;
76745;SDS011;65671;49.976;20.038;2023-03-05T08:39:36;15.50;;;9.20;;
76745;SDS011;65671;49.976;20.038;2023-03-05T08:42:03;14.90;;;7.47;;
76745;SDS011;65671;49.976;20.038;2023-03-05T08:44:29;15.88;;;7.18;;
76745;SDS011;65671;49.976;20.038;2023-03-05T08:49:23;21.85;;;10.25;;
76745;SDS011;65671;49.976;20.038;2023-03-05T08:51:49;23.23;;;10.85;;
76745;SDS011;65671;49.976;20.038;2023-03-05T08:56:40;47.00;;;15.02;;
76745;SDS011;65671;49.976;20.038;2023-03-05T08:59:05;20.02;;;8.10;;
76745;SDS011;65671;49.976;20.038;2023-03-05T09:01:32;16.08;;;7.30;;
76745;SDS011;65671;49.976;20.038;2023-03-05T09:03:58;16.67;;;9.15;;
76745;SDS011;65671;49.976;20.038;2023-03-05T09:06:24;13.48;;;5.35;;
76745;SDS011;65671;49.976;20.038;2023-03-05T09:08:51;17.25;;;7.30;;
76745;SDS011;65671;49.976;20.038;2023-03-05T09:11:17;14.05;;;5.68;;
76745;SDS011;65671;49.976;20.038;2023-03-05T09:13:43;14.05;;;5.78;;
76745;SDS011;65671;49.976;20.038;2023-03-05T09:18:36;11.05;;;5.43;;
76745;SDS011;65671;49.976;20.038;2023-03-05T09:21:11;8.60;;;5.07;;
76745;SDS011;65671;49.976;20.038;2023-03-05T09:23:38;17.55;;;9.25;;
76745;SDS011;65671;49.976;20.038;2023-03-05T09:28:30;24.60;;;10.38;;
76745;SDS011;65671;49.976;20.038;2023-03-05T09:33:21;18.27;;;8.68;;
76745;SDS011;65671;49.976;20.038;2023-03-05T09:35:48;23.05;;;9.68;;
76745;SDS011;65671;49.976;20.038;2023-03-05T09:38:14;23.13;;;11.43;;
76745;SDS011;65671;49.976;20.038;2023-03-05T09:40:45;19.30;;;8.43;;
76745;SDS011;65671;49.976;20.038;2023-03-05T09:49:15;22.55;;;12.57;;
76745;SDS011;65671;49.976;20.038;2023-03-05T09:51:55;23.02;;;11.70;;
76745;SDS011;65671;49.976;20.038;2023-03-05T09:54:32;19.90;;;11.07;;
76745;SDS011;65671;49.976;20.038;2023-03-05T09:57:21;21.83;;;11.50;;
76745;SDS011;65671;49.976;20.038;2023-03-05T09:59:55;35.05;;;14.23;;
76745;SDS011;65671;49.976;20.038;2023-03-05T10:02:28;17.98;;;9.23;;
76745;SDS011;65671;49.976;20.038;2023-03-05T10:07:54;29.17;;;12.35;;
76745;SDS011;65671;49.976;20.038;2023-03-05T10:10:35;24.63;;;13.70;;
76745;SDS011;65671;49.976;20.038;2023-03-05T10:13:18;20.55;;;10.90;;
76745;SDS011;65671;49.976;20.038;2023-03-05T10:21:03;19.23;;;11.02;;
76745;SDS011;65671;49.976;20.038;2023-03-05T10:27:16;25.00;;;12.15;;
76745;SDS011;65671;49.976;20.038;2023-03-05T10:40:25;24.80;;;13.25;;
76745;SDS011;65671;49.976;20.038;2023-03-05T10:47:54;17.70;;;10.23;;
76745;SDS011;65671;49.976;20.038;2023-03-05T10:50:42;20.67;;;11.15;;
76745;SDS011;65671;49.976;20.038;2023-03-05T10:56:01;18.30;;;9.65;;
76745;SDS011;65671;49.976;20.038;2023-03-05T10:58:29;19.80;;;11.00;;
76745;SDS011;65671;49.976;20.038;2023-03-05T11:03:23;19.10;;;9.68;;
76745;SDS011;65671;49.976;20.038;2023-03-05T11:08:33;21.10;;;9.60;;
76745;SDS011;65671;49.976;20.038;2023-03-05T11:11:21;17.42;;;9.27;;
76745;SDS011;65671;49.976;20.038;2023-03-05T11:13:55;17.50;;;9.35;;
76745;SDS011;65671;49.976;20.038;2023-03-05T11:16:29;17.02;;;9.32;;
76745;SDS011;65671;49.976;20.038;2023-03-05T11:19:30;17.92;;;8.93;;
76745;SDS011;65671;49.976;20.038;2023-03-05T11:22:10;21.48;;;10.20;;
76745;SDS011;65671;49.976;20.038;2023-03-05T11:27:53;19.23;;;9.10;;
76745;SDS011;65671;49.976;20.038;2023-03-05T11:30:28;17.50;;;8.82;;
76745;SDS011;65671;49.976;20.038;2023-03-05T11:35:32;17.25;;;9.38;;
76745;SDS011;65671;49.976;20.038;2023-03-05T11:38:04;18.92;;;9.32;;
76745;SDS011;65671;49.976;20.038;2023-03-05T11:40:31;19.30;;;10.07;;
76745;SDS011;65671;49.976;20.038;2023-03-05T11:43:02;21.02;;;9.50;;
76745;SDS011;65671;49.976;20.038;2023-03-05T11:45:29;17.98;;;9.63;;
76745;SDS011;65671;49.976;20.038;2023-03-05T11:47:59;16.05;;;8.95;;
76745;SDS011;65671;49.976;20.038;2023-03-05T11:50:31;16.25;;;7.95;;
76745;SDS011;65671;49.976;20.038;2023-03-05T11:55:41;16.13;;;8.25;;
76745;SDS011;65671;49.976;20.038;2023-03-05T12:01:21;15.48;;;8.38;;
76745;SDS011;65671;49.976;20.038;2023-03-05T12:03:51;17.50;;;8.73;;
76745;SDS011;65671;49.976;20.038;2023-03-05T12:09:11;24.83;;;8.80;;
76745;SDS011;65671;49.976;20.038;2023-03-05T12:11:42;12.70;;;7.43;;
76745;SDS011;65671;49.976;20.038;2023-03-05T12:16:56;12.85;;;6.93;;
76745;SDS011;65671;49.976;20.038;2023-03-05T12:19:32;20.45;;;7.90;;
76745;SDS011;65671;49.976;20.038;2023-03-05T12:22:24;15.27;;;7.40;;
76745;SDS011;65671;49.976;20.038;2023-03-05T12:24:53;11.88;;;6.65;;
76745;SDS011;65671;49.976;20.038;2023-03-05T12:27:42;13.32;;;6.80;;
76745;SDS011;65671;49.976;20.038;2023-03-05T12:30:28;16.00;;;6.15;;
76745;SDS011;65671;49.976;20.038;2023-03-05T12:33:04;15.25;;;7.60;;
76745;SDS011;65671;49.976;20.038;2023-03-05T12:35:36;15.43;;;7.28;;
76745;SDS011;65671;49.976;20.038;2023-03-05T12:38:04;11.00;;;5.80;;
76745;SDS011;65671;49.976;20.038;2023-03-05T12:49:26;13.45;;;5.90;;
76745;SDS011;65671;49.976;20.038;2023-03-05T12:51:54;10.40;;;5.25;;
76745;SDS011;65671;49.976;20.038;2023-03-05T12:56:49;10.75;;;6.20;;
76745;SDS011;65671;49.976;20.038;2023-03-05T12:59:17;14.73;;;7.32;;
76745;SDS011;65671;49.976;20.038;2023-03-05T13:01:47;18.05;;;8.15;;
76745;SDS011;65671;49.976;20.038;2023-03-05T13:04:19;22.45;;;8.75;;
76745;SDS011;65671;49.976;20.038;2023-03-05T13:07:03;17.15;;;6.97;;
76745;SDS011;65671;49.976;20.038;2023-03-05T13:09:32;21.70;;;8.52;;
76745;SDS011;65671;49.976;20.038;2023-03-05T13:12:00;18.55;;;7.72;;
76745;SDS011;65671;49.976;20.038;2023-03-05T13:14:32;15.15;;;8.05;;
76745;SDS011;65671;49.976;20.038;2023-03-05T13:17:01;20.15;;;9.25;;
76745;SDS011;65671;49.976;20.038;2023-03-05T13:19:28;23.05;;;10.55;;
76745;SDS011;65671;49.976;20.038;2023-03-05T13:22:00;18.02;;;8.10;;
76745;SDS011;65671;49.976;20.038;2023-03-05T13:24:28;17.40;;;7.78;;
76745;SDS011;65671;49.976;20.038;2023-03-05T13:26:57;16.73;;;8.35;;
76745;SDS011;65671;49.976;20.038;2023-03-05T13:29:24;20.08;;;8.52;;
76745;SDS011;65671;49.976;20.038;2023-03-05T13:31:56;16.98;;;8.77;;
76745;SDS011;65671;49.976;20.038;2023-03-05T13:34:29;13.75;;;8.00;;
76745;SDS011;65671;49.976;20.038;2023-03-05T13:37:01;17.52;;;8.35;;
76745;SDS011;65671;49.976;20.038;2023-03-05T13:39:36;17.02;;;7.93;;
76745;SDS011;65671;49.976;20.038;2023-03-05T13:42:15;14.90;;;8.38;;
76745;SDS011;65671;49.976;20.038;2023-03-05T13:44:47;22.33;;;9.18;;
76745;SDS011;65671;49.976;20.038;2023-03-05T13:47:19;15.23;;;7.78;;
76745;SDS011;65671;49.976;20.038;2023-03-05T13:49:53;18.48;;;8.57;;
76745;SDS011;65671;49.976;20.038;2023-03-05T13:52:28;19.63;;;8.27;;
76745;SDS011;65671;49.976;20.038;2023-03-05T13:54:56;17.20;;;7.70;;
76745;SDS011;65671;49.976;20.038;2023-03-05T14:00:01;19.58;;;8.07;;
76745;SDS011;65671;49.976;20.038;2023-03-05T14:02:28;17.48;;;8.95;;
76745;SDS011;65671;49.976;20.038;2023-03-05T14:04:54;17.08;;;8.43;;
76745;SDS011;65671;49.976;20.038;2023-03-05T14:09:55;16.02;;;6.80;;
76745;SDS011;65671;49.976;20.038;2023-03-05T14:14:54;17.75;;;7.85;;
76745;SDS011;65671;49.976;20.038;2023-03-05T14:22:47;15.70;;;9.15;;
76745;SDS011;65671;49.976;20.038;2023-03-05T14:25:48;13.95;;;7.88;;
76745;SDS011;65671;49.976;20.038;2023-03-05T14:30:48;20.00;;;10.00;;
76745;SDS011;65671;49.976;20.038;2023-03-05T14:33:23;21.48;;;9.80;;
76745;SDS011;65671;49.976;20.038;2023-03-05T14:35:52;21.02;;;9.32;;
76745;SDS011;65671;49.976;20.038;2023-03-05T14:38:23;21.13;;;10.10;;
76745;SDS011;65671;49.976;20.038;2023-03-05T14:40:52;15.65;;;7.90;;
76745;SDS011;65671;49.976;20.038;2023-03-05T14:43:18;18.42;;;8.90;;
76745;SDS011;65671;49.976;20.038;2023-03-05T14:45:43;16.55;;;8.25;;
76745;SDS011;65671;49.976;20.038;2023-03-05T14:48:10;13.30;;;6.93;;
76745;SDS011;65671;49.976;20.038;2023-03-05T14:53:08;10.98;;;5.55;;
76745;SDS011;65671;49.976;20.038;2023-03-05T14:55:39;14.75;;;7.05;;
76745;SDS011;65671;49.976;20.038;2023-03-05T14:58:10;15.15;;;8.05;;
76745;SDS011;65671;49.976;20.038;2023-03-05T15:00:38;11.52;;;6.25;;
76745;SDS011;65671;49.976;20.038;2023-03-05T15:03:04;17.38;;;8.20;;
76745;SDS011;65671;49.976;20.038;2023-03-05T15:05:30;15.85;;;7.93;;
76745;SDS011;65671;49.976;20.038;2023-03-05T15:10:22;9.18;;;4.63;;
76745;SDS011;65671;49.976;20.038;2023-03-05T15:12:49;14.77;;;5.95;;
76745;SDS011;65671;49.976;20.038;2023-03-05T15:15:17;11.30;;;6.60;;
76745;SDS011;65671;49.976;20.038;2023-03-05T15:17:47;10.98;;;5.32;;
76745;SDS011;65671;49.976;20.038;2023-03-05T15:20:24;11.85;;;5.88;;
76745;SDS011;65671;49.976;20.038;2023-03-05T15:25:18;12.48;;;5.72;;
76745;SDS011;65671;49.976;20.038;2023-03-05T15:27:45;11.30;;;6.07;;
76745;SDS011;65671;49.976;20.038;2023-03-05T15:30:19;10.75;;;5.13;;
76745;SDS011;65671;49.976;20.038;2023-03-05T15:35:22;11.35;;;5.15;;
76745;SDS011;65671;49.976;20.038;2023-03-05T15:37:49;13.55;;;5.82;;
76745;SDS011;65671;49.976;20.038;2023-03-05T15:40:15;9.15;;;4.40;;
76745;SDS011;65671;49.976;20.038;2023-03-05T15:45:07;10.83;;;4.87;;
76745;SDS011;65671;49.976;20.038;2023-03-05T15:47:32;9.88;;;6.10;;
76745;SDS011;65671;49.976;20.038;2023-03-05T15:52:23;20.10;;;8.00;;
76745;SDS011;65671;49.976;20.038;2023-03-05T15:54:49;30.13;;;9.90;;
76745;SDS011;65671;49.976;20.038;2023-03-05T15:57:15;18.33;;;8.65;;
76745;SDS011;65671;49.976;20.038;2023-03-05T15:59:41;39.50;;;15.40;;
76745;SDS011;65671;49.976;20.038;2023-03-05T16:02:06;36.88;;;13.90;;
76745;SDS011;65671;49.976;20.038;2023-03-05T16:04:32;36.33;;;14.00;;
76745;SDS011;65671;49.976;20.038;2023-03-05T16:06:58;32.25;;;12.68;;
76745;SDS011;65671;49.976;20.038;2023-03-05T16:09:31;35.50;;;13.90;;
76745;SDS011;65671;49.976;20.038;2023-03-05T16:12:02;39.25;;;13.82;;
76745;SDS011;65671;49.976;20.038;2023-03-05T16:14:42;23.42;;;10.02;;
76745;SDS011;65671;49.976;20.038;2023-03-05T16:17:08;28.38;;;10.95;;
76745;SDS011;65671;49.976;20.038;2023-03-05T16:19:35;23.13;;;10.52;;
76745;SDS011;65671;49.976;20.038;2023-03-05T16:22:04;26.42;;;10.57;;
76745;SDS011;65671;49.976;20.038;2023-03-05T16:24:30;21.25;;;9.60;;
76745;SDS011;65671;49.976;20.038;2023-03-05T16:26:57;17.75;;;8.20;;
76745;SDS011;65671;49.976;20.038;2023-03-05T16:29:23;20.58;;;9.10;;
76745;SDS011;65671;49.976;20.038;2023-03-05T16:31:50;17.45;;;9.88;;
76745;SDS011;65671;49.976;20.038;2023-03-05T16:34:16;23.30;;;11.60;;
76745;SDS011;65671;49.976;20.038;2023-03-05T16:36:46;16.83;;;7.97;;
76745;SDS011;65671;49.976;20.038;2023-03-05T16:39:14;19.00;;;8.18;;
76745;SDS011;65671;49.976;20.038;2023-03-05T16:41:40;19.60;;;7.50;;
76745;SDS011;65671;49.976;20.038;2023-03-05T16:44:06;20.63;;;8.57;;
76745;SDS011;65671;49.976;20.038;2023-03-05T16:46:32;15.73;;;7.60;;
76745;SDS011;65671;49.976;20.038;2023-03-05T16:48:57;16.23;;;7.28;;
76745;SDS011;65671;49.976;20.038;2023-03-05T16:53:48;14.50;;;6.60;;
76745;SDS011;65671;49.976;20.038;2023-03-05T16:58:39;17.63;;;8.65;;
76745;SDS011;65671;49.976;20.038;2023-03-05T17:01:13;17.65;;;8.20;;
76745;SDS011;65671;49.976;20.038;2023-03-05T17:03:41;22.98;;;11.43;;
76745;SDS011;65671;49.976;20.038;2023-03-05T17:06:09;25.85;;;11.93;;
76745;SDS011;65671;49.976;20.038;2023-03-05T17:08:40;21.15;;;10.23;;
76745;SDS011;65671;49.976;20.038;2023-03-05T17:11:07;18.77;;;8.88;;
76745;SDS011;65671;49.976;20.038;2023-03-05T17:13:35;18.92;;;9.13;;
76745;SDS011;65671;49.976;20.038;2023-03-05T17:16:01;22.95;;;11.27;;
76745;SDS011;65671;49.976;20.038;2023-03-05T17:18:28;25.63;;;10.90;;
76745;SDS011;65671;49.976;20.038;2023-03-05T17:20:54;20.33;;;9.63;;
76745;SDS011;65671;49.976;20.038;2023-03-05T17:25:45;18.63;;;9.52;;
76745;SDS011;65671;49.976;20.038;2023-03-05T17:30:36;28.15;;;12.68;;
76745;SDS011;65671;49.976;20.038;2023-03-05T17:33:02;24.15;;;10.48;;
76745;SDS011;65671;49.976;20.038;2023-03-05T17:35:31;24.90;;;12.70;;
76745;SDS011;65671;49.976;20.038;2023-03-05T17:37:58;22.92;;;10.88;;
76745;SDS011;65671;49.976;20.038;2023-03-05T17:40:23;17.45;;;9.15;;
76745;SDS011;65671;49.976;20.038;2023-03-05T17:42:49;15.38;;;8.50;;
76745;SDS011;65671;49.976;20.038;2023-03-05T17:47:41;15.73;;;6.57;;
76745;SDS011;65671;49.976;20.038;2023-03-05T17:52:35;14.13;;;6.07;;
76745;SDS011;65671;49.976;20.038;2023-03-05T17:55:08;9.27;;;5.03;;
76745;SDS011;65671;49.976;20.038;2023-03-05T17:57:40;12.27;;;5.63;;